createdAt,value
2023-03-22T00:00:21.094Z,7.63
2023-03-22T00:04:28.454Z,7.63
2023-03-22T00:08:33.508Z,7.59
2023-03-22T00:12:35.837Z,7.61
2023-03-22T00:16:38.063Z,7.44
2023-03-22T00:20:47.738Z,7.53
2023-03-22T00:24:51.379Z,7.57
2023-03-22T00:28:53.650Z,7.63
2023-03-22T00:32:56.595Z,7.66
2023-03-22T00:36:59.385Z,7.61
2023-03-22T00:41:21.429Z,7.59
2023-03-22T00:45:23.698Z,7.53
2023-03-22T00:49:27.286Z,7.50
2023-03-22T00:53:29.656Z,7.43
2023-03-22T00:57:32.063Z,7.17
2023-03-22T01:01:34.515Z,7.19
2023-03-22T01:05:37.874Z,7.02
2023-03-22T01:09:40.682Z,6.67
2023-03-22T01:13:43.142Z,6.60
2023-03-22T01:17:45.382Z,6.76
2023-03-22T01:21:47.791Z,6.79
2023-03-22T01:25:50.958Z,6.84
2023-03-22T01:29:53.538Z,6.87
2023-03-22T01:33:56.383Z,6.89
2023-03-22T01:37:59.245Z,6.65
2023-03-22T01:42:03.485Z,6.22
2023-03-22T01:46:06.511Z,6.31
2023-03-22T01:50:09.419Z,6.32
2023-03-22T01:54:18.702Z,6.30
2023-03-22T01:58:21.773Z,6.13
2023-03-22T02:02:36.767Z,6.13
2023-03-22T02:06:58.217Z,6.32
2023-03-22T02:11:05.236Z,6.43
2023-03-22T02:15:20.968Z,6.51
2023-03-22T02:20:18.429Z,6.54
2023-03-22T02:24:46.213Z,6.42
2023-03-22T02:28:51.674Z,6.42
2023-03-22T02:33:25.184Z,6.44
2023-03-22T02:37:50.749Z,6.43
2023-03-22T02:42:02.214Z,6.26
2023-03-22T02:46:23.789Z,6.26
2023-03-22T02:50:38.517Z,6.33
2023-03-22T02:54:49.961Z,6.29
2023-03-22T02:58:58.014Z,6.18
2023-03-22T03:03:11.699Z,6.08
2023-03-22T03:07:25.150Z,5.94
2023-03-22T03:11:39.740Z,5.97
2023-03-22T03:15:46.559Z,5.86
2023-03-22T03:20:08.892Z,5.44
2023-03-22T03:24:28.776Z,5.36
2023-03-22T03:28:53.014Z,5.56
2023-03-22T03:33:04.937Z,5.70
2023-03-22T03:37:14.259Z,5.82
2023-03-22T03:41:20.794Z,5.69
2023-03-22T03:45:26.942Z,5.73
2023-03-22T03:49:29.429Z,5.75
2023-03-22T03:53:31.783Z,5.50
2023-03-22T03:57:34.060Z,5.43
2023-03-22T04:01:36.533Z,5.33
2023-03-22T04:05:48.494Z,5.03
2023-03-22T04:09:51.005Z,5.03
2023-03-22T04:14:06.702Z,5.20
2023-03-22T04:18:11.877Z,5.42
2023-03-22T04:22:18.580Z,5.55
2023-03-22T04:26:22.748Z,5.61
2023-03-22T04:30:42.080Z,5.38
2023-03-22T04:35:03.892Z,5.40
2023-03-22T04:39:08.920Z,5.36
2023-03-22T04:43:13.753Z,5.32
2023-03-22T04:47:28.075Z,5.44
2023-03-22T04:51:32.835Z,5.41
2023-03-22T04:55:58.473Z,5.48
2023-03-22T05:00:06.297Z,5.45
2023-03-22T05:04:09.437Z,5.09
2023-03-22T05:08:14.443Z,4.94
2023-03-22T05:12:21.699Z,5.03
2023-03-22T05:16:34.082Z,5.20
2023-03-22T05:20:39.116Z,5.29
2023-03-22T05:24:47.611Z,5.35
2023-03-22T05:28:57.049Z,5.45
2023-03-22T05:33:06.503Z,5.58
2023-03-22T05:37:17.391Z,5.64
2023-03-22T05:41:36.410Z,5.74
2023-03-22T05:45:39.715Z,5.88
2023-03-22T05:49:58.561Z,6.02
2023-03-22T05:54:01.976Z,6.09
2023-03-22T05:58:11.384Z,6.29
2023-03-22T06:02:16.609Z,6.43
2023-03-22T06:06:19.323Z,6.58
2023-03-22T06:10:32.954Z,6.77
2023-03-22T06:19:19.740Z,6.93
2023-03-22T06:23:22.415Z,7.02
2023-03-22T06:27:24.747Z,7.24
2023-03-22T06:31:27.354Z,7.44
2023-03-22T06:35:34.009Z,7.71
2023-03-22T06:39:36.564Z,7.92
2023-03-22T06:43:38.850Z,8.09
2023-03-22T06:47:50.723Z,8.35
2023-03-22T06:52:28.058Z,8.31
2023-03-22T06:56:32.192Z,8.50
2023-03-22T07:00:36.642Z,8.52
2023-03-22T07:04:40.983Z,8.59
2023-03-22T07:08:43.074Z,8.58
2023-03-22T07:12:47.876Z,8.96
2023-03-22T07:16:52.077Z,9.27
2023-03-22T07:20:56.322Z,9.51
2023-03-22T07:25:01.271Z,9.75
2023-03-22T07:29:06.400Z,9.84
2023-03-22T07:33:11.350Z,10.08
2023-03-22T07:37:15.482Z,10.24
2023-03-22T07:41:18.566Z,10.39
2023-03-22T07:45:41.419Z,10.57
2023-03-22T07:50:17.711Z,10.91
2023-03-22T07:54:33.572Z,10.99
2023-03-22T07:58:38.345Z,11.21
2023-03-22T08:02:40.657Z,11.40
2023-03-22T08:06:42.922Z,11.53
2023-03-22T08:10:50.792Z,11.79
2023-03-22T08:14:53.408Z,11.85
2023-03-22T08:19:00.238Z,12.15
2023-03-22T08:23:04.045Z,12.33
2023-03-22T08:27:32.238Z,12.59
2023-03-22T08:31:35.736Z,12.85
2023-03-22T08:35:40.182Z,13.06
2023-03-22T08:39:44.285Z,13.23
2023-03-22T08:44:02.009Z,13.37
2023-03-22T08:48:06.034Z,13.55
2023-03-22T08:52:20.610Z,13.77
2023-03-22T08:56:38.298Z,14.04
2023-03-22T09:00:57.401Z,14.23
2023-03-22T09:05:15.702Z,14.43
2023-03-22T09:09:18.495Z,14.56
2023-03-22T09:13:24.558Z,14.75
2023-03-22T09:17:31.522Z,14.96
2023-03-22T09:21:33.866Z,15.07
2023-03-22T09:25:52.160Z,15.24
2023-03-22T09:29:58.440Z,15.40
2023-03-22T09:34:01.022Z,15.62
2023-03-22T09:38:06.185Z,15.67
2023-03-22T09:42:30.750Z,15.67
2023-03-22T09:46:40.940Z,15.91
2023-03-22T09:50:49.468Z,15.98
2023-03-22T09:54:53.146Z,16.17
2023-03-22T09:59:04.889Z,16.55
2023-03-22T10:03:20.050Z,16.65
2023-03-22T10:07:31.000Z,16.87
2023-03-22T10:11:55.918Z,17.10
2023-03-22T10:16:02.386Z,17.24
2023-03-22T10:20:11.681Z,17.20
2023-03-22T10:24:18.512Z,17.36
2023-03-22T10:28:43.091Z,17.47
2023-03-22T10:32:57.136Z,17.24
2023-03-22T10:37:04.209Z,17.57
2023-03-22T10:41:07.157Z,17.50
2023-03-22T10:45:14.271Z,17.40
2023-03-22T10:49:26.352Z,17.59
2023-03-22T10:53:44.303Z,17.76
2023-03-22T10:58:16.108Z,17.91
2023-03-22T11:02:30.608Z,17.78
2023-03-22T11:06:38.152Z,17.87
2023-03-22T11:10:40.299Z,17.83
2023-03-22T11:14:45.816Z,17.54
2023-03-22T11:18:48.076Z,17.64
2023-03-22T11:22:51.322Z,17.57
2023-03-22T11:27:03.148Z,17.57
2023-03-22T11:31:11.616Z,17.65
2023-03-22T11:35:24.337Z,17.79
2023-03-22T11:39:28.821Z,17.95
2023-03-22T11:43:44.149Z,18.10
2023-03-22T11:47:46.575Z,18.19
2023-03-22T11:51:49.196Z,18.27
2023-03-22T11:55:54.084Z,18.32
2023-03-22T12:00:30.907Z,18.33
2023-03-22T12:04:38.410Z,18.39
2023-03-22T12:08:45.023Z,18.49
2023-03-22T12:12:53.433Z,18.68
2023-03-22T12:17:08.504Z,18.78
2023-03-22T12:21:13.902Z,18.80
2023-03-22T12:25:18.568Z,18.61
2023-03-22T12:29:21.804Z,18.80
2023-03-22T12:33:46.830Z,18.71
2023-03-22T12:37:54.295Z,18.69
2023-03-22T12:42:02.708Z,18.66
2023-03-22T12:46:06.563Z,18.86
2023-03-22T12:50:20.732Z,18.94
2023-03-22T12:54:25.754Z,19.13
2023-03-22T12:58:28.204Z,18.95
2023-03-22T13:02:34.618Z,18.99
2023-03-22T13:06:44.229Z,19.19
2023-03-22T13:11:04.594Z,19.18
2023-03-22T13:15:41.322Z,19.18
2023-03-22T13:19:53.630Z,19.14
2023-03-22T13:24:15.698Z,19.09
2023-03-22T13:28:29.694Z,19.20
2023-03-22T13:32:33.912Z,19.35
2023-03-22T13:36:37.535Z,19.28
2023-03-22T13:40:46.274Z,19.19
2023-03-22T13:45:03.692Z,19.28
2023-03-22T13:49:31.582Z,19.29
2023-03-22T13:53:36.778Z,19.42
2023-03-22T13:57:59.497Z,19.35
2023-03-22T14:02:33.835Z,19.49
2023-03-22T14:06:48.081Z,19.61
2023-03-22T14:11:01.558Z,19.69
2023-03-22T14:15:06.943Z,19.77
2023-03-22T14:19:17.359Z,19.81
